Time;durP1;ratioP1;P1;durP2;ratioP2;P2;SDS_P1;SDS_P2;PMS_P1;PMS_P2;Temp;Humidity;BMP_temperature;BMP_pressure;BME280_temperature;BME280_humidity;BME280_pressure;Samples;Min_cycle;Max_cycle;Signal;HPM_P1;HPM_P2
2023/04/02 00:00:28;;;;;;;1.63;1.53;;;11.10;99.80;;;;;;10460635;28;20222;-81
2023/04/02 00:05:54;;;;;;;1.43;1.40;;;11.10;99.90;;;;;;10465893;28;20196;-82
2023/04/02 00:10:59;;;;;;;1.50;1.40;;;11.00;99.90;;;;;;10467834;28;20435;-79
2023/04/02 00:16:03;;;;;;;1.30;1.20;;;10.90;99.90;;;;;;10463365;28;20197;-79
2023/04/02 00:21:14;;;;;;;1.87;1.77;;;10.90;99.90;;;;;;10465066;28;20571;-83
2023/04/02 00:26:22;;;;;;;1.97;1.50;;;10.90;99.90;;;;;;10445624;28;20204;-82
2023/04/02 00:31:25;;;;;;;3.40;1.63;;;10.80;99.90;;;;;;10441529;28;20723;-81
2023/04/02 00:36:33;;;;;;;1.80;1.70;;;10.80;99.90;;;;;;10466865;28;20491;-81
2023/04/02 00:41:37;;;;;;;2.70;1.70;;;10.80;99.90;;;;;;10472159;28;20690;-81
2023/04/02 00:46:45;;;;;;;1.90;1.80;;;10.80;99.90;;;;;;10445728;28;20198;-81
2023/04/02 00:51:53;;;;;;;1.60;1.50;;;10.80;99.90;;;;;;10443075;28;20218;-82
2023/04/02 00:56:58;;;;;;;2.60;1.80;;;10.80;99.90;;;;;;10468879;28;20216;-79
2023/04/02 01:02:21;;;;;;;4.50;2.43;;;10.80;99.90;;;;;;10462297;28;20218;-80
2023/04/02 01:07:42;;;;;;;1.60;1.60;;;10.80;99.90;;;;;;10448392;28;20218;-81
2023/04/02 01:12:51;;;;;;;1.40;1.30;;;10.90;99.90;;;;;;10466572;28;20225;-80
2023/04/02 01:18:12;;;;;;;1.67;1.57;;;10.90;99.90;;;;;;10468078;28;20259;-79
2023/04/02 01:23:20;;;;;;;1.63;1.53;;;10.90;99.90;;;;;;10467277;28;20563;-80
2023/04/02 01:28:28;;;;;;;1.60;1.50;;;11.00;99.90;;;;;;10454502;28;20713;-81
2023/04/02 01:33:35;;;;;;;1.83;1.73;;;11.00;99.90;;;;;;10465913;28;20260;-81
2023/04/02 01:38:43;;;;;;;1.70;1.60;;;11.00;99.90;;;;;;10465771;28;20194;-80
2023/04/02 01:43:51;;;;;;;1.70;1.70;;;11.10;99.90;;;;;;10466440;28;20190;-79
2023/04/02 01:48:56;;;;;;;1.80;1.70;;;11.10;99.90;;;;;;10466830;28;20776;-83
2023/04/02 01:54:02;;;;;;;1.40;1.40;;;11.10;99.90;;;;;;10466601;28;20217;-82
2023/04/02 01:59:05;;;;;;;1.70;1.60;;;11.10;99.90;;;;;;10465882;28;20261;-82
2023/04/02 02:04:12;;;;;;;1.40;1.40;;;11.20;99.90;;;;;;10467775;28;20190;-82
2023/04/02 02:09:21;;;;;;;1.37;1.37;;;11.10;99.90;;;;;;10467866;28;20550;-82
2023/04/02 02:14:25;;;;;;;1.67;1.57;;;11.20;99.90;;;;;;10490710;28;20241;-82
2023/04/02 02:19:34;;;;;;;1.67;1.57;;;11.20;99.90;;;;;;10459069;28;20221;-82
2023/04/02 02:24:36;;;;;;;3.43;1.63;;;11.20;99.90;;;;;;10463104;28;20186;-82
2023/04/02 02:29:41;;;;;;;1.50;1.40;;;11.20;99.90;;;;;;10456738;28;20625;-80
2023/04/02 02:34:52;;;;;;;1.60;1.50;;;11.20;99.90;;;;;;10440248;28;20221;-81
2023/04/02 02:39:58;;;;;;;1.90;1.80;;;11.20;99.90;;;;;;10425513;28;20213;-81
2023/04/02 02:45:05;;;;;;;1.50;1.50;;;11.20;99.90;;;;;;10456395;28;20182;-81
2023/04/02 02:50:17;;;;;;;1.93;1.83;;;11.20;99.90;;;;;;10459744;28;20455;-81
2023/04/02 02:55:23;;;;;;;1.40;1.40;;;11.20;99.90;;;;;;10440667;28;20237;-83
2023/04/02 03:00:39;;;;;;;1.83;1.80;;;11.20;99.90;;;;;;10455614;22;20716;-81
2023/04/02 03:05:45;;;;;;;1.80;1.70;;;11.20;99.90;;;;;;10362253;28;20207;-80
2023/04/02 03:10:58;;;;;;;1.80;1.70;;;11.20;99.90;;;;;;10349140;28;20222;-81
2023/04/02 03:16:10;;;;;;;1.70;1.60;;;11.20;99.90;;;;;;10364879;28;20238;-81
2023/04/02 03:21:25;;;;;;;1.70;1.60;;;11.20;99.90;;;;;;10359008;28;20227;-81
2023/04/02 03:26:32;;;;;;;1.63;1.53;;;11.30;99.90;;;;;;10352109;28;20208;-81
2023/04/02 03:31:38;;;;;;;1.80;1.70;;;11.20;99.90;;;;;;10355976;28;20215;-81
2023/04/02 03:36:50;;;;;;;1.77;1.77;;;11.20;99.90;;;;;;10347883;28;20545;-80
2023/04/02 03:41:57;;;;;;;2.03;1.80;;;11.20;99.90;;;;;;10337086;28;20253;-81
2023/04/02 03:47:04;;;;;;;1.77;1.67;;;11.20;99.90;;;;;;10338391;28;20220;-80
2023/04/02 03:52:13;;;;;;;1.90;1.80;;;11.20;99.90;;;;;;10336661;28;20225;-81
2023/04/02 03:57:25;;;;;;;1.67;1.67;;;11.20;99.90;;;;;;10370682;28;20210;-80
2023/04/02 04:02:38;;;;;;;2.23;2.03;;;11.10;99.90;;;;;;10337395;28;20699;-81
2023/04/02 04:07:44;;;;;;;1.90;1.80;;;11.10;99.90;;;;;;10346477;28;20208;-80
2023/04/02 04:12:47;;;;;;;2.00;1.90;;;11.00;99.90;;;;;;10357156;28;20254;-81
2023/04/02 04:18:00;;;;;;;1.70;1.70;;;11.00;99.90;;;;;;10354269;28;20670;-81
2023/04/02 04:23:16;;;;;;;1.60;1.60;;;11.00;99.90;;;;;;10342701;28;20222;-81
2023/04/02 04:28:27;;;;;;;1.83;1.73;;;11.00;99.90;;;;;;10358940;28;20543;-81
2023/04/02 04:33:39;;;;;;;1.83;1.73;;;11.00;99.90;;;;;;10334033;28;20219;-81
2023/04/02 04:38:48;;;;;;;2.10;2.00;;;11.00;99.90;;;;;;10344951;28;20249;-81
2023/04/02 04:43:56;;;;;;;1.80;1.70;;;11.00;99.90;;;;;;10317928;28;20248;-83
2023/04/02 04:49:05;;;;;;;2.33;2.23;;;11.00;99.90;;;;;;10367671;28;20195;-82
2023/04/02 04:54:12;;;;;;;1.87;1.77;;;11.00;99.90;;;;;;10338788;28;20585;-84
2023/04/02 04:59:21;;;;;;;1.90;1.80;;;11.00;99.90;;;;;;10354265;28;20202;-84
2023/04/02 05:04:30;;;;;;;2.73;2.00;;;11.00;99.90;;;;;;10357727;28;20199;-84
2023/04/02 05:09:38;;;;;;;2.07;1.97;;;11.00;99.90;;;;;;10354162;28;20223;-85
2023/04/02 05:14:45;;;;;;;2.00;1.90;;;11.00;99.90;;;;;;10343151;28;20216;-84
2023/04/02 05:19:55;;;;;;;2.03;1.93;;;11.10;99.90;;;;;;10360852;28;20241;-84
2023/04/02 05:25:13;;;;;;;1.80;1.70;;;11.10;99.90;;;;;;10337442;28;20283;-84
2023/04/02 05:30:39;;;;;;;2.40;2.30;;;11.10;99.90;;;;;;10361099;28;20223;-84
2023/04/02 05:35:44;;;;;;;1.97;1.87;;;11.20;99.90;;;;;;10346836;28;20255;-84
2023/04/02 05:40:54;;;;;;;1.87;1.77;;;11.10;99.90;;;;;;10376417;28;20234;-84
2023/04/02 05:46:01;;;;;;;2.00;1.90;;;11.10;99.90;;;;;;10357753;28;20222;-84
2023/04/02 05:51:06;;;;;;;2.20;2.00;;;11.20;99.90;;;;;;10346176;28;20231;-84
2023/04/02 05:56:17;;;;;;;1.80;1.80;;;11.10;99.90;;;;;;10360987;28;20660;-83
2023/04/02 06:01:29;;;;;;;4.00;2.00;;;11.10;99.90;;;;;;10337197;28;20342;-82
2023/04/02 06:06:49;;;;;;;3.20;3.00;;;11.10;99.90;;;;;;10343851;28;20286;-83
2023/04/02 06:12:00;;;;;;;9.97;8.47;;;11.20;99.90;;;;;;10364724;28;20227;-83
2023/04/02 06:17:03;;;;;;;4.07;3.77;;;11.20;99.90;;;;;;10345820;28;20202;-82
2023/04/02 06:22:18;;;;;;;2.80;2.70;;;11.20;99.90;;;;;;10358632;28;20578;-84
2023/04/02 06:27:25;;;;;;;2.40;2.30;;;11.30;99.90;;;;;;10351964;28;20570;-82
2023/04/02 06:32:28;;;;;;;4.07;3.73;;;11.30;99.90;;;;;;10362428;28;20607;-82
2023/04/02 06:37:34;;;;;;;10.17;7.73;;;11.30;99.90;;;;;;10323602;28;20204;-80
2023/04/02 06:42:55;;;;;;;2.93;2.73;;;11.40;99.90;;;;;;10357319;28;20310;-81
2023/04/02 06:48:25;;;;;;;5.03;4.57;;;11.40;99.90;;;;;;10354779;28;20188;-81
2023/04/02 06:53:35;;;;;;;4.90;4.50;;;11.40;99.90;;;;;;10346327;28;20223;-81
2023/04/02 06:58:40;;;;;;;2.90;2.10;;;11.50;99.90;;;;;;10341639;28;20195;-81
2023/04/02 07:03:42;;;;;;;2.50;2.40;;;11.60;99.90;;;;;;10336962;28;20319;-81
2023/04/02 07:09:06;;;;;;;2.60;2.50;;;11.60;99.90;;;;;;10326600;28;20200;-81
2023/04/02 07:14:13;;;;;;;2.20;2.07;;;11.70;99.90;;;;;;10366135;28;20242;-81
2023/04/02 07:19:20;;;;;;;2.20;2.10;;;11.80;99.90;;;;;;10329247;28;20211;-81
2023/04/02 07:24:23;;;;;;;3.67;3.30;;;11.80;99.90;;;;;;10348377;28;20278;-81
2023/04/02 07:29:26;;;;;;;2.80;2.10;;;11.90;99.90;;;;;;10373529;28;20231;-82
2023/04/02 07:34:28;;;;;;;1.83;1.73;;;12.00;99.90;;;;;;10372776;28;20239;-81
2023/04/02 07:39:31;;;;;;;3.10;2.90;;;11.90;99.90;;;;;;10351608;28;20645;-80
2023/04/02 07:44:34;;;;;;;1.93;1.83;;;12.00;99.90;;;;;;10358666;28;20196;-80
2023/04/02 07:49:36;;;;;;;1.80;1.70;;;12.00;99.90;;;;;;10359360;28;20242;-82
2023/04/02 07:54:38;;;;;;;1.77;1.67;;;12.10;99.90;;;;;;10350094;28;20219;-82
2023/04/02 07:59:42;;;;;;;2.00;1.90;;;12.10;99.90;;;;;;10376750;28;20251;-82
2023/04/02 08:04:44;;;;;;;1.70;1.60;;;12.10;99.90;;;;;;10346362;28;20196;-81
2023/04/02 08:09:46;;;;;;;1.83;1.73;;;12.20;99.90;;;;;;10328558;28;20216;-83
2023/04/02 08:14:50;;;;;;;1.67;1.57;;;12.20;99.90;;;;;;10343771;28;20216;-82
2023/04/02 08:19:52;;;;;;;1.60;1.60;;;12.30;99.90;;;;;;10368888;28;20223;-81
2023/04/02 08:24:55;;;;;;;1.80;1.70;;;12.30;99.90;;;;;;10338578;28;20200;-84
2023/04/02 08:29:58;;;;;;;3.17;1.87;;;12.40;99.90;;;;;;10358491;28;20219;-84
2023/04/02 08:35:01;;;;;;;1.87;1.73;;;12.50;99.90;;;;;;10365764;28;20215;-83
2023/04/02 08:40:05;;;;;;;2.00;1.87;;;12.50;99.90;;;;;;10405381;28;20215;-83
2023/04/02 08:45:20;;;;;;;1.87;1.77;;;12.50;99.90;;;;;;10414435;28;20211;-82
2023/04/02 08:50:30;;;;;;;1.83;1.73;;;12.40;99.90;;;;;;10387328;28;20265;-81
2023/04/02 08:55:43;;;;;;;2.50;1.47;;;12.40;99.90;;;;;;10357652;28;20203;-81
2023/04/02 09:00:53;;;;;;;1.50;1.33;;;12.40;99.90;;;;;;10436069;22;20245;-81
2023/04/02 09:05:57;;;;;;;1.90;1.80;;;12.40;99.90;;;;;;10464881;28;20713;-81
2023/04/02 09:11:06;;;;;;;2.73;1.63;;;12.40;99.90;;;;;;10465455;28;20245;-81
2023/04/02 09:16:11;;;;;;;1.90;1.67;;;12.40;99.90;;;;;;10456149;28;20215;-83
2023/04/02 09:21:27;;;;;;;2.33;1.70;;;12.50;99.90;;;;;;10447814;28;20583;-81
2023/04/02 09:26:31;;;;;;;1.57;1.33;;;12.50;99.90;;;;;;10419915;28;20193;-81
2023/04/02 09:31:38;;;;;;;1.70;1.60;;;12.50;99.90;;;;;;10433491;28;20313;-81
2023/04/02 09:36:41;;;;;;;1.73;1.63;;;12.60;99.90;;;;;;10427428;28;20254;-82
2023/04/02 09:41:43;;;;;;;1.80;1.70;;;12.70;99.90;;;;;;10446682;28;20264;-84
2023/04/02 09:46:53;;;;;;;2.10;1.90;;;12.70;99.90;;;;;;10438836;28;20642;-82
2023/04/02 09:52:19;;;;;;;1.90;1.80;;;12.70;99.90;;;;;;10459083;28;20240;-84
2023/04/02 09:57:26;;;;;;;2.80;2.10;;;12.70;99.90;;;;;;10447771;28;20716;-82
2023/04/02 10:02:30;;;;;;;18.63;16.97;;;12.60;99.90;;;;;;10405032;28;20228;-82
2023/04/02 10:07:36;;;;;;;2.70;2.60;;;12.60;99.90;;;;;;10419248;28;20190;-82
2023/04/02 10:12:42;;;;;;;2.33;1.90;;;12.60;99.90;;;;;;10464519;28;20216;-83
2023/04/02 10:17:52;;;;;;;2.70;1.80;;;12.60;99.90;;;;;;10451355;28;20205;-84
2023/04/02 10:22:54;;;;;;;1.90;1.90;;;12.60;99.90;;;;;;10423556;28;20678;-85
2023/04/02 10:28:09;;;;;;;2.07;1.80;;;12.70;99.90;;;;;;10410858;28;20190;-85
2023/04/02 10:33:18;;;;;;;4.57;2.07;;;12.70;99.90;;;;;;10416206;28;20273;-85
2023/04/02 10:38:37;;;;;;;2.00;1.90;;;12.80;99.90;;;;;;10428798;28;20201;-85
2023/04/02 10:43:53;;;;;;;2.40;2.20;;;13.00;99.90;;;;;;10436833;28;20743;-84
2023/04/02 10:49:07;;;;;;;2.10;2.00;;;13.20;99.90;;;;;;10415195;28;20204;-84
2023/04/02 10:54:23;;;;;;;1.90;1.80;;;13.30;99.90;;;;;;10445840;28;20226;-84
2023/04/02 10:59:31;;;;;;;1.83;1.73;;;13.40;99.90;;;;;;10453303;28;20668;-84
2023/04/02 11:04:42;;;;;;;1.80;1.70;;;13.40;99.90;;;;;;10416405;28;20194;-84
2023/04/02 11:09:47;;;;;;;2.20;2.00;;;13.30;99.90;;;;;;10422199;28;20218;-85
2023/04/02 11:14:50;;;;;;;2.27;2.17;;;13.30;99.90;;;;;;10453574;28;20214;-84
2023/04/02 11:19:54;;;;;;;2.10;2.00;;;13.30;99.90;;;;;;10453335;28;20213;-84
2023/04/02 11:24:57;;;;;;;2.67;1.80;;;13.20;99.90;;;;;;10434822;28;20220;-84
2023/04/02 11:30:05;;;;;;;2.60;2.50;;;13.20;99.90;;;;;;10452430;28;20252;-86
2023/04/02 11:35:40;;;;;;;1.90;1.80;;;13.30;99.90;;;;;;10452079;28;20293;-86
2023/04/02 11:40:51;;;;;;;1.53;1.53;;;13.30;99.90;;;;;;10452780;28;20300;-85
2023/04/02 11:45:56;;;;;;;1.90;1.80;;;13.40;99.90;;;;;;10435063;28;20285;-85
2023/04/02 11:51:03;;;;;;;1.40;1.40;;;13.50;99.90;;;;;;10451545;28;20214;-85
2023/04/02 11:56:08;;;;;;;1.40;1.40;;;13.60;99.90;;;;;;10435063;28;20217;-86
2023/04/02 12:01:44;;;;;;;1.50;1.50;;;13.70;99.90;;;;;;10443679;28;20279;-85
2023/04/02 12:06:59;;;;;;;1.80;1.70;;;13.90;99.90;;;;;;10458956;28;20182;-86
2023/04/02 12:12:15;;;;;;;1.47;1.37;;;14.00;99.90;;;;;;10440570;28;20222;-85
2023/04/02 12:17:25;;;;;;;1.60;1.60;;;14.20;99.60;;;;;;10456341;28;20224;-86
2023/04/02 12:22:31;;;;;;;1.50;1.40;;;14.30;99.30;;;;;;10454850;28;20689;-83
2023/04/02 12:27:36;;;;;;;1.20;1.20;;;14.50;96.80;;;;;;10459665;28;20280;-85
2023/04/02 12:32:39;;;;;;;1.67;1.57;;;14.50;98.20;;;;;;10455790;28;20213;-84
2023/04/02 12:37:42;;;;;;;1.60;1.60;;;14.50;98.70;;;;;;10437255;28;20252;-84
2023/04/02 12:42:44;;;;;;;1.83;1.73;;;14.50;97.20;;;;;;10454185;28;20295;-85
2023/04/02 12:47:46;;;;;;;1.50;1.50;;;14.40;98.40;;;;;;10452828;28;20194;-85
2023/04/02 12:52:53;;;;;;;1.87;1.67;;;14.30;98.90;;;;;;10436269;28;20228;-85
2023/04/02 12:57:56;;;;;;;1.77;1.67;;;14.30;98.80;;;;;;10431630;28;20213;-85
2023/04/02 13:03:16;;;;;;;1.63;1.63;;;14.30;98.50;;;;;;10461216;28;20218;-85
2023/04/02 13:08:24;;;;;;;1.50;1.50;;;14.30;99.00;;;;;;10451585;28;20201;-85
2023/04/02 13:13:29;;;;;;;1.43;1.43;;;14.30;98.20;;;;;;10446091;28;20312;-84
2023/04/02 13:18:34;;;;;;;1.37;1.37;;;14.30;96.50;;;;;;10457912;28;20205;-85
2023/04/02 13:23:37;;;;;;;1.90;1.80;;;14.30;98.40;;;;;;10439072;28;20217;-85
2023/04/02 13:28:39;;;;;;;2.20;2.10;;;14.40;98.20;;;;;;10439625;28;20269;-85
2023/04/02 13:33:42;;;;;;;2.60;2.40;;;14.40;98.60;;;;;;10439977;28;20256;-85
2023/04/02 13:38:45;;;;;;;2.20;2.10;;;14.30;99.30;;;;;;10456487;28;20217;-85
2023/04/02 13:43:47;;;;;;;2.67;2.50;;;14.20;99.40;;;;;;10457844;28;20210;-84
2023/04/02 13:48:51;;;;;;;2.73;2.50;;;14.00;99.90;;;;;;10446031;28;20217;-84
2023/04/02 13:53:57;;;;;;;2.87;2.60;;;13.90;99.90;;;;;;10404203;28;20250;-85
2023/04/02 13:58:59;;;;;;;2.73;2.63;;;13.70;99.90;;;;;;10433750;28;20207;-85
2023/04/02 14:04:02;;;;;;;3.03;2.83;;;13.60;99.90;;;;;;10438369;28;20316;-85
2023/04/02 14:09:13;;;;;;;2.97;2.80;;;13.40;99.90;;;;;;10437547;28;20190;-85
2023/04/02 14:14:40;;;;;;;2.80;2.60;;;13.30;99.90;;;;;;10436990;28;20255;-85
2023/04/02 14:20:05;;;;;;;2.57;2.37;;;13.20;99.90;;;;;;10435239;28;20322;-85
2023/04/02 14:25:18;;;;;;;2.87;2.70;;;13.10;99.90;;;;;;10397447;28;20213;-85
2023/04/02 14:30:26;;;;;;;2.57;2.47;;;13.00;99.90;;;;;;10444499;28;20227;-84
2023/04/02 14:35:33;;;;;;;3.40;3.20;;;12.90;99.90;;;;;;10436866;28;20609;-85
2023/04/02 14:40:41;;;;;;;3.00;2.90;;;12.90;99.90;;;;;;10435046;28;20220;-85
2023/04/02 14:46:00;;;;;;;3.97;3.77;;;12.80;99.90;;;;;;10414540;28;20255;-85
2023/04/02 14:51:07;;;;;;;3.57;3.23;;;12.70;99.90;;;;;;10437246;28;20218;-85
2023/04/02 14:56:12;;;;;;;2.93;2.83;;;12.70;99.90;;;;;;10416278;28;20733;-83
2023/04/02 15:01:20;;;;;;;3.13;2.93;;;12.70;99.90;;;;;;10438150;23;20245;-86
2023/04/02 15:06:27;;;;;;;2.90;2.80;;;12.70;99.90;;;;;;10452390;28;20277;-84
2023/04/02 15:11:35;;;;;;;2.67;2.57;;;12.60;99.90;;;;;;10417419;28;20308;-84
2023/04/02 15:16:37;;;;;;;3.40;3.13;;;12.60;99.90;;;;;;10436004;28;20589;-84
2023/04/02 15:21:53;;;;;;;2.77;2.67;;;12.60;99.90;;;;;;10441896;28;20233;-85
2023/04/02 15:27:10;;;;;;;2.40;2.30;;;12.50;99.90;;;;;;10435164;28;20225;-85
2023/04/02 15:32:25;;;;;;;2.40;2.30;;;12.40;99.90;;;;;;10426091;28;20218;-83
2023/04/02 15:37:35;;;;;;;2.67;2.57;;;12.30;99.90;;;;;;10427639;28;20267;-85
2023/04/02 15:42:43;;;;;;;3.20;2.90;;;12.20;99.90;;;;;;10430862;28;20305;-84
2023/04/02 15:47:56;;;;;;;3.30;3.10;;;12.00;99.90;;;;;;10449315;28;20559;-85
2023/04/02 15:53:05;;;;;;;3.20;3.00;;;11.90;99.90;;;;;;10403570;28;20222;-85
2023/04/02 15:58:25;;;;;;;3.33;3.07;;;11.80;99.90;;;;;;10411482;28;20213;-85
2023/04/02 16:03:48;;;;;;;3.53;3.23;;;11.80;99.90;;;;;;10454532;28;20229;-84
2023/04/02 16:09:01;;;;;;;2.63;2.53;;;11.70;99.90;;;;;;10443588;28;20232;-85
2023/04/02 16:14:24;;;;;;;2.97;2.87;;;11.70;99.90;;;;;;10428899;28;20230;-84
2023/04/02 16:19:32;;;;;;;3.00;2.67;;;11.60;99.90;;;;;;10440123;28;20193;-84
2023/04/02 16:24:34;;;;;;;3.40;3.20;;;11.50;99.90;;;;;;10445897;28;20756;-85
2023/04/02 16:30:01;;;;;;;2.93;2.83;;;11.50;99.90;;;;;;10435907;28;20586;-84
2023/04/02 16:35:15;;;;;;;2.83;2.73;;;11.60;99.90;;;;;;10439084;28;20232;-83
2023/04/02 16:40:30;;;;;;;3.67;3.47;;;11.40;99.90;;;;;;10418125;28;20253;-85
2023/04/02 16:45:41;;;;;;;4.03;3.40;;;11.40;99.90;;;;;;10446293;28;20214;-85
2023/04/02 16:50:54;;;;;;;3.40;3.13;;;11.40;99.90;;;;;;10449606;28;20233;-84
2023/04/02 16:56:16;;;;;;;3.80;3.20;;;11.40;99.90;;;;;;10449152;28;20297;-84
2023/04/02 17:01:28;;;;;;;4.93;2.80;;;11.40;99.90;;;;;;10434920;28;20240;-83
2023/04/02 17:06:41;;;;;;;3.30;3.10;;;11.20;99.90;;;;;;10442914;28;20205;-84
2023/04/02 17:11:48;;;;;;;3.10;3.00;;;11.20;99.90;;;;;;10438328;28;20222;-82
2023/04/02 17:16:56;;;;;;;3.20;3.00;;;11.20;99.90;;;;;;10417685;28;20813;-82
2023/04/02 17:22:01;;;;;;;3.37;3.27;;;11.10;99.90;;;;;;10447235;28;20272;-82
2023/04/02 17:27:06;;;;;;;3.20;3.00;;;11.00;99.90;;;;;;10458859;28;20266;-82
2023/04/02 17:32:21;;;;;;;4.50;3.30;;;10.90;99.90;;;;;;10433636;28;20226;-80
2023/04/02 17:37:30;;;;;;;3.37;3.20;;;10.90;99.90;;;;;;10445493;28;20313;-82
2023/04/02 17:42:46;;;;;;;2.87;2.77;;;10.80;99.90;;;;;;10430670;28;20230;-81
2023/04/02 17:47:58;;;;;;;4.10;3.80;;;10.80;99.90;;;;;;10431849;28;20206;-83
2023/04/02 17:53:08;;;;;;;3.87;3.67;;;10.70;99.90;;;;;;10424508;28;20253;-82
2023/04/02 17:58:26;;;;;;;3.63;3.47;;;10.70;99.90;;;;;;10434501;28;20320;-82
2023/04/02 18:03:53;;;;;;;4.30;3.87;;;10.70;99.60;;;;;;10419573;28;20229;-82
2023/04/02 18:09:14;;;;;;;4.00;3.63;;;10.50;99.90;;;;;;10439083;28;20198;-82
2023/04/02 18:14:35;;;;;;;3.40;3.30;;;10.50;99.90;;;;;;10426509;28;20792;-81
2023/04/02 18:19:47;;;;;;;4.27;3.97;;;10.40;99.90;;;;;;10433263;28;20213;-81
2023/04/02 18:25:15;;;;;;;4.90;4.60;;;10.40;99.90;;;;;;10404919;28;20894;-83
2023/04/02 18:30:26;;;;;;;5.53;4.80;;;10.40;99.90;;;;;;10430718;28;20224;-83
2023/04/02 18:35:33;;;;;;;5.10;4.70;;;10.30;99.90;;;;;;10401283;28;20225;-82
2023/04/02 18:40:42;;;;;;;5.30;4.90;;;10.30;99.90;;;;;;10416528;28;20214;-84
2023/04/02 18:45:54;;;;;;;5.50;5.10;;;10.20;99.70;;;;;;10402459;28;20201;-82
2023/04/02 18:51:00;;;;;;;5.00;4.50;;;10.20;99.80;;;;;;10428473;28;20253;-82
2023/04/02 18:56:06;;;;;;;5.23;4.80;;;10.10;99.00;;;;;;10415784;28;20228;-82
2023/04/02 19:01:13;;;;;;;5.27;4.77;;;10.00;99.50;;;;;;10426076;28;20233;-82
2023/04/02 19:06:21;;;;;;;4.73;4.43;;;9.90;98.80;;;;;;10426583;28;20196;-82
2023/04/02 19:11:28;;;;;;;4.93;4.53;;;9.90;99.90;;;;;;10430167;28;20309;-82
2023/04/02 19:17:06;;;;;;;5.70;5.30;;;9.80;99.00;;;;;;10428421;28;20222;-81
2023/04/02 19:22:16;;;;;;;5.73;5.33;;;9.70;98.40;;;;;;10382441;28;20226;-82
2023/04/02 19:27:26;;;;;;;4.50;4.20;;;9.60;99.30;;;;;;10432739;28;20208;-82
2023/04/02 19:32:33;;;;;;;4.40;4.10;;;9.50;98.50;;;;;;10417791;28;20221;-82
2023/04/02 19:37:41;;;;;;;4.47;4.27;;;9.40;98.30;;;;;;10434037;28;20225;-82
2023/04/02 19:42:46;;;;;;;4.40;4.10;;;9.30;97.20;;;;;;10432954;28;20239;-82
2023/04/02 19:47:48;;;;;;;4.13;3.83;;;9.20;98.60;;;;;;10422303;28;20206;-83
2023/04/02 19:52:52;;;;;;;4.43;4.13;;;9.20;98.00;;;;;;10426241;28;20222;-82
2023/04/02 19:57:54;;;;;;;4.30;4.00;;;9.20;96.60;;;;;;10407223;28;20688;-81
2023/04/02 20:02:56;;;;;;;3.93;3.73;;;9.00;97.60;;;;;;10440896;28;20222;-81
2023/04/02 20:07:59;;;;;;;4.63;4.30;;;8.90;97.00;;;;;;10416922;28;20209;-81
2023/04/02 20:13:01;;;;;;;4.70;4.40;;;8.90;96.40;;;;;;10448094;28;20344;-81
2023/04/02 20:18:04;;;;;;;5.37;4.57;;;8.90;97.50;;;;;;10450390;28;20249;-81
2023/04/02 20:23:07;;;;;;;5.30;4.80;;;8.90;96.40;;;;;;10451309;28;20266;-83
2023/04/02 20:28:10;;;;;;;4.67;4.27;;;8.80;98.00;;;;;;10451482;28;20187;-83
2023/04/02 20:33:12;;;;;;;4.80;4.40;;;8.90;96.50;;;;;;10450058;28;20238;-83
2023/04/02 20:38:15;;;;;;;4.30;4.00;;;8.90;97.50;;;;;;10450346;28;20736;-84
2023/04/02 20:43:18;;;;;;;7.37;4.57;;;8.80;96.60;;;;;;10446911;28;20713;-83
2023/04/02 20:48:24;;;;;;;7.90;5.10;;;8.80;95.80;;;;;;10431407;28;20209;-83
2023/04/02 20:53:28;;;;;;;4.43;4.03;;;8.80;96.10;;;;;;10449252;28;20628;-81
2023/04/02 20:58:31;;;;;;;4.60;4.17;;;8.80;94.40;;;;;;10447318;28;20228;-79
2023/04/02 21:03:33;;;;;;;4.30;3.90;;;8.70;95.50;;;;;;10445069;28;20223;-80
2023/04/02 21:08:36;;;;;;;4.70;4.30;;;8.60;95.30;;;;;;10431194;28;20196;-81
2023/04/02 21:13:41;;;;;;;4.47;4.07;;;8.60;95.60;;;;;;10442952;28;20567;-81
2023/04/02 21:18:44;;;;;;;4.70;4.30;;;8.50;95.60;;;;;;10445170;28;20219;-81
2023/04/02 21:23:52;;;;;;;4.37;3.97;;;8.50;96.10;;;;;;10443649;28;20619;-83
2023/04/02 21:28:55;;;;;;;4.03;3.73;;;8.50;96.10;;;;;;10444530;28;20558;-83
2023/04/02 21:33:59;;;;;;;4.50;4.20;;;8.50;96.50;;;;;;10444682;28;20278;-82
2023/04/02 21:39:05;;;;;;;5.63;4.10;;;8.60;96.70;;;;;;10447075;28;20225;-83
2023/04/02 21:44:09;;;;;;;5.03;4.63;;;8.60;96.10;;;;;;10437146;28;20207;-80
2023/04/02 21:49:12;;;;;;;4.30;4.00;;;8.60;95.40;;;;;;10439011;28;20588;-81
2023/04/02 21:54:16;;;;;;;4.83;4.47;;;8.60;95.00;;;;;;10440905;28;20214;-80
2023/04/02 21:59:18;;;;;;;4.17;3.87;;;8.50;96.00;;;;;;10421709;28;20283;-80
2023/04/02 22:04:22;;;;;;;3.97;3.67;;;8.50;96.50;;;;;;10434492;28;20641;-79
2023/04/02 22:09:26;;;;;;;4.37;3.97;;;8.50;95.30;;;;;;10427620;28;20214;-79
2023/04/02 22:14:29;;;;;;;4.03;3.73;;;8.50;96.50;;;;;;10437841;28;20301;-80
2023/04/02 22:19:31;;;;;;;4.17;3.87;;;8.60;95.60;;;;;;10443175;28;20666;-80
2023/04/02 22:24:35;;;;;;;3.60;3.40;;;8.60;95.40;;;;;;10437435;28;20218;-80
2023/04/02 22:29:37;;;;;;;5.30;4.30;;;8.60;94.00;;;;;;10436040;28;20645;-79
2023/04/02 22:34:44;;;;;;;3.70;3.40;;;8.50;95.00;;;;;;10440271;28;20252;-81
2023/04/02 22:39:47;;;;;;;3.60;3.30;;;8.40;95.40;;;;;;10437344;28;20198;-81
2023/04/02 22:44:49;;;;;;;4.33;3.90;;;8.50;96.10;;;;;;10444317;28;20222;-81
2023/04/02 22:49:51;;;;;;;4.70;4.30;;;8.50;96.30;;;;;;10444005;28;20654;-81
2023/04/02 22:54:55;;;;;;;4.23;3.93;;;8.50;96.10;;;;;;10442830;28;20201;-81
2023/04/02 22:59:57;;;;;;;3.90;3.63;;;8.50;95.70;;;;;;10430180;28;20220;-81
2023/04/02 23:04:59;;;;;;;4.60;3.60;;;8.50;95.10;;;;;;10425861;28;20214;-81
2023/04/02 23:10:02;;;;;;;4.00;3.63;;;8.50;94.40;;;;;;10431246;28;20253;-81
2023/04/02 23:15:05;;;;;;;4.40;4.10;;;8.40;95.60;;;;;;10449929;28;20225;-81
2023/04/02 23:20:09;;;;;;;4.17;3.77;;;8.40;93.40;;;;;;10474612;28;20256;-80
2023/04/02 23:25:12;;;;;;;4.10;3.80;;;8.40;95.00;;;;;;10462541;28;20205;-81
2023/04/02 23:30:15;;;;;;;4.73;4.43;;;8.30;95.00;;;;;;10485838;28;20278;-81
2023/04/02 23:35:17;;;;;;;3.60;3.40;;;8.30;95.80;;;;;;10437843;28;20214;-81
2023/04/02 23:40:20;;;;;;;4.07;3.77;;;8.30;93.20;;;;;;10450554;28;20228;-81
2023/04/02 23:45:22;;;;;;;4.03;3.60;;;8.20;94.00;;;;;;10456517;28;20277;-82
2023/04/02 23:50:24;;;;;;;4.07;3.80;;;8.10;95.60;;;;;;10419504;28;20221;-80
2023/04/02 23:55:28;;;;;;;4.93;4.40;;;8.10;94.90;;;;;;10421206;28;20243;-81
